Terminal Aerodrome Forecast
Issued by NWS Twin Cities, MN

Home | Current Version | Previous Version | Graphics & Text | Print | Product List | Glossary On
Versions: 1 2 3 4 5 6 7 8 9 10 11 12 13 14 15 16 17 18 19 20 21 22 23 24
000
FTUS43 KMPX 242359
TAFMSP
TAF
KMSP 242359Z 2500/2606 28009KT P6SM OVC250
     FM250600 26004KT P6SM BKN250
     FM251700 28013G20KT P6SM FEW250
     FM260000 30007KT P6SM FEW070 BKN120
     FM260500 00000KT P6SM FEW200=

USA.gov is the U.S. government's official web portal to all federal, state and local government web resources and services.